»·PEaware :: FIDO42 KSPS-KSPS

FIDO42 :: KSPS-KSPS

FLIGHT INFORMATION

Flight Status: Arrived
Operator: Unknown
More flights by this operator :: More flights under this callsign
Pilot: 80 FTW ENJJPT (22981)
Aircraft: NORTHROP T-38 AT-38 TALON
(T38)
More flights by this aircraft type
Origin: KSPS Sheppard AFB/Wichita Falls Mu
United States
Destination: KSPS Sheppard AFB/Wichita Falls Mu
United States
More flights between these airports :: More routes between these airports
Route: +KSPS SPS MQP PHNXX KNFW (PHNXX1) AND RTB TO KSPS VIA MQP COMER KSPS AT 16000
File this flight plan on PilotEdge
Remarks:
Altitude:
(Current/Filed)
11,000ft
Speed:
(Current/Filed)
400kts
Departed: 10-Nov-20 11:55 AM
Arrived: 10-Nov-20 01:04 PM
Distance/Time
Traveled:
0nm/1:09
Distance/Time
To Go:
Arrived

Flight Plot

Page will automatically refresh every two minutes.

Flight plan parsing failed; only flown route is shown


Map Options




Map Legend


Flown Route
Filed Route
Departure Airport
Arrival Airport
Navaid (VOR, NDB)
Fix

Horizontal Profiles

Position Reports

Time Latitude Longitude Heading Altitude Ground
Speed
10-Nov-20 11:48 34.003197 -98.500444 70 1027ft 0kts
10-Nov-20 11:49 34.003198 -98.500443 70 1027ft 0kts
10-Nov-20 11:50 34.003198 -98.500442 70 1027ft 0kts
10-Nov-20 11:51 34.003198 -98.500441 70 1027ft 0kts
10-Nov-20 11:52 34.003198 -98.500440 70 1027ft 0kts
10-Nov-20 11:53 34.003199 -98.500440 70 1027ft 0kts
10-Nov-20 11:54 34.001344 -98.498371 157 1027ft 82kts
10-Nov-20 11:55 33.941412 -98.471715 164 2869ft 302kts
10-Nov-20 11:56 33.856802 -98.426744 161 7502ft 358kts
10-Nov-20 11:57 33.765510 -98.392968 163 10828ft 345kts
10-Nov-20 11:58 33.673500 -98.361751 164 11156ft 344kts
10-Nov-20 11:59 33.582225 -98.331785 164 10996ft 319kts
10-Nov-20 12:00 33.495456 -98.296402 159 11175ft 344kts
10-Nov-20 12:01 33.407917 -98.253198 156 10932ft 339kts
10-Nov-20 12:02 33.319075 -98.218979 167 11076ft 342kts
10-Nov-20 12:03 33.225987 -98.183334 158 11048ft 357kts
10-Nov-20 12:04 33.132079 -98.141313 163 11151ft 347kts
10-Nov-20 12:05 33.059788 -98.081691 113 10182ft 323kts
10-Nov-20 12:06 33.037960 -97.979132 89 9413ft 320kts
10-Nov-20 12:07 33.043368 -97.870994 86 8843ft 336kts
10-Nov-20 12:08 33.042243 -97.756915 93 8154ft 346kts
10-Nov-20 12:09 33.036315 -97.643232 92 7259ft 331kts
10-Nov-20 12:10 33.032720 -97.541610 93 4882ft 269kts
10-Nov-20 12:11 33.011579 -97.470648 164 4143ft 245kts
10-Nov-20 12:12 32.944630 -97.460660 173 3650ft 213kts
10-Nov-20 12:13 32.889018 -97.453053 172 3168ft 200kts
10-Nov-20 12:14 32.833515 -97.445083 175 1493ft 191kts
10-Nov-20 12:15 32.776291 -97.441423 181 890ft 199kts
10-Nov-20 12:16 32.705881 -97.444275 182 2803ft 266kts
10-Nov-20 12:17 32.635973 -97.458525 221 4134ft 259kts
10-Nov-20 12:18 32.625239 -97.539282 272 4158ft 263kts
10-Nov-20 12:19 32.669932 -97.598946 352 4132ft 271kts
10-Nov-20 12:20 32.744100 -97.610161 351 4028ft 268kts
10-Nov-20 12:21 32.816645 -97.621477 1 4175ft 253kts
10-Nov-20 12:22 32.891038 -97.618799 2 4036ft 279kts
10-Nov-20 12:23 32.969714 -97.612455 4 4022ft 286kts
10-Nov-20 12:24 33.013429 -97.549917 90 3904ft 267kts
10-Nov-20 12:25 33.010228 -97.465697 99 3953ft 246kts
10-Nov-20 12:26 32.961415 -97.437411 185 3989ft 204kts
10-Nov-20 12:27 32.908479 -97.440448 179 3010ft 190kts
10-Nov-20 12:28 32.855249 -97.440421 178 2153ft 195kts
10-Nov-20 12:29 32.801630 -97.440750 178 969ft 187kts
10-Nov-20 12:30 32.749286 -97.441545 178 1274ft 243kts
10-Nov-20 12:31 32.675559 -97.441223 181 3648ft 276kts
10-Nov-20 12:32 32.633656 -97.510775 281 9181ft 303kts
10-Nov-20 12:33 32.657788 -97.624438 281 11595ft 392kts
10-Nov-20 12:34 32.681850 -97.756826 283 15634ft 436kts
10-Nov-20 12:35 32.710912 -97.895831 283 15940ft 415kts
10-Nov-20 12:36 32.735257 -98.028523 281 16105ft 409kts
10-Nov-20 12:37 32.801329 -98.132226 333 16074ft 432kts
10-Nov-20 12:38 32.909690 -98.192330 336 16015ft 433kts
10-Nov-20 12:39 33.019704 -98.248911 336 16041ft 431kts
10-Nov-20 12:40 33.128899 -98.308170 334 15989ft 432kts
10-Nov-20 12:41 33.238527 -98.367860 336 15943ft 431kts
10-Nov-20 12:42 33.321934 -98.412482 334 16034ft 430kts
10-Nov-20 12:44 33.430197 -98.474875 334 16076ft 429kts
10-Nov-20 12:45 33.538492 -98.536101 334 16083ft 435kts
10-Nov-20 12:46 33.647087 -98.601748 332 14948ft 419kts
10-Nov-20 12:47 33.746926 -98.660221 334 12847ft 379kts
10-Nov-20 12:48 33.836139 -98.713798 333 8815ft 353kts
10-Nov-20 12:49 33.920605 -98.760837 337 5212ft 287kts
10-Nov-20 12:50 33.988322 -98.807305 316 5109ft 276kts
10-Nov-20 12:51 34.042755 -98.875505 311 5113ft 289kts
10-Nov-20 12:52 34.079794 -98.954162 252 5013ft 279kts
10-Nov-20 12:53 34.026910 -98.984136 146 4973ft 268kts
10-Nov-20 12:54 34.002374 -98.911338 100 5127ft 275kts
10-Nov-20 12:55 33.986528 -98.816708 93 5015ft 288kts
10-Nov-20 12:56 34.033621 -98.757013 3 4753ft 276kts
10-Nov-20 12:57 34.101853 -98.726884 30 3937ft 261kts
10-Nov-20 12:58 34.147234 -98.681653 49 3465ft 252kts
10-Nov-20 12:59 34.174917 -98.613918 98 3145ft 249kts
10-Nov-20 12:59 34.140622 -98.563453 147 2675ft 209kts
10-Nov-20 13:01 34.085031 -98.534842 157 2360ft 179kts
10-Nov-20 13:02 34.039006 -98.512936 156 1791ft 180kts
10-Nov-20 13:03 33.995030 -98.491821 159 1028ft 115kts
10-Nov-20 13:03 33.988879 -98.489028 198 1027ft 3kts
10-Nov-20 13:04 33.988571 -98.489443 245 1027ft 0kts

Navigation Log

Ident Type
Flight plan parsing failed, navigation log unavailable